sensor_id;sensor_type;location;lat;lon;timestamp;P1;durP1;ratioP1;P2;durP2;ratioP2
72235;SDS011;60146;52.498;13.462;2022-08-19T00:01:19;12.73;;;7.50;;
72235;SDS011;60146;52.498;13.462;2022-08-19T00:03:44;9.88;;;7.28;;
72235;SDS011;60146;52.498;13.462;2022-08-19T00:06:09;11.48;;;8.02;;
72235;SDS011;60146;52.498;13.462;2022-08-19T00:08:35;11.20;;;7.40;;
72235;SDS011;60146;52.498;13.462;2022-08-19T00:11:03;12.20;;;8.13;;
72235;SDS011;60146;52.498;13.462;2022-08-19T00:13:29;11.50;;;7.93;;
72235;SDS011;60146;52.498;13.462;2022-08-19T00:15:55;11.77;;;7.25;;
72235;SDS011;60146;52.498;13.462;2022-08-19T00:18:21;10.30;;;7.57;;
72235;SDS011;60146;52.498;13.462;2022-08-19T00:20:46;11.68;;;7.95;;
72235;SDS011;60146;52.498;13.462;2022-08-19T00:23:11;10.57;;;7.78;;
72235;SDS011;60146;52.498;13.462;2022-08-19T00:25:37;10.82;;;7.63;;
72235;SDS011;60146;52.498;13.462;2022-08-19T00:28:02;10.10;;;7.18;;
72235;SDS011;60146;52.498;13.462;2022-08-19T00:30:29;11.00;;;7.75;;
72235;SDS011;60146;52.498;13.462;2022-08-19T00:32:55;11.45;;;8.07;;
72235;SDS011;60146;52.498;13.462;2022-08-19T00:35:21;10.65;;;7.82;;
72235;SDS011;60146;52.498;13.462;2022-08-19T00:37:47;12.10;;;8.70;;
72235;SDS011;60146;52.498;13.462;2022-08-19T00:40:13;18.38;;;9.45;;
72235;SDS011;60146;52.498;13.462;2022-08-19T00:42:38;12.85;;;8.38;;
72235;SDS011;60146;52.498;13.462;2022-08-19T00:45:08;20.63;;;10.98;;
72235;SDS011;60146;52.498;13.462;2022-08-19T00:47:42;14.63;;;9.73;;
72235;SDS011;60146;52.498;13.462;2022-08-19T00:50:08;15.10;;;10.30;;
72235;SDS011;60146;52.498;13.462;2022-08-19T00:52:36;15.57;;;10.25;;
72235;SDS011;60146;52.498;13.462;2022-08-19T00:55:07;18.63;;;10.88;;
72235;SDS011;60146;52.498;13.462;2022-08-19T00:57:37;17.33;;;11.82;;
72235;SDS011;60146;52.498;13.462;2022-08-19T01:00:11;16.65;;;11.18;;
72235;SDS011;60146;52.498;13.462;2022-08-19T01:02:40;16.40;;;11.93;;
72235;SDS011;60146;52.498;13.462;2022-08-19T01:05:07;17.13;;;11.23;;
72235;SDS011;60146;52.498;13.462;2022-08-19T01:07:35;16.80;;;11.40;;
72235;SDS011;60146;52.498;13.462;2022-08-19T01:10:04;18.00;;;11.82;;
72235;SDS011;60146;52.498;13.462;2022-08-19T01:12:31;19.10;;;12.73;;
72235;SDS011;60146;52.498;13.462;2022-08-19T01:14:57;18.67;;;12.63;;
72235;SDS011;60146;52.498;13.462;2022-08-19T01:17:24;17.75;;;12.52;;
72235;SDS011;60146;52.498;13.462;2022-08-19T01:19:49;16.63;;;11.68;;
72235;SDS011;60146;52.498;13.462;2022-08-19T01:24:46;18.52;;;12.00;;
72235;SDS011;60146;52.498;13.462;2022-08-19T01:27:12;21.23;;;11.73;;
72235;SDS011;60146;52.498;13.462;2022-08-19T01:29:38;21.70;;;12.82;;
72235;SDS011;60146;52.498;13.462;2022-08-19T01:32:05;19.13;;;12.52;;
72235;SDS011;60146;52.498;13.462;2022-08-19T01:34:32;22.95;;;12.32;;
72235;SDS011;60146;52.498;13.462;2022-08-19T01:36:59;19.58;;;12.35;;
72235;SDS011;60146;52.498;13.462;2022-08-19T01:39:26;23.58;;;13.75;;
72235;SDS011;60146;52.498;13.462;2022-08-19T01:41:52;21.02;;;12.90;;
72235;SDS011;60146;52.498;13.462;2022-08-19T01:44:19;23.55;;;13.60;;
72235;SDS011;60146;52.498;13.462;2022-08-19T01:46:48;24.30;;;14.45;;
72235;SDS011;60146;52.498;13.462;2022-08-19T01:49:14;22.50;;;12.95;;
72235;SDS011;60146;52.498;13.462;2022-08-19T01:51:41;22.45;;;13.48;;
72235;SDS011;60146;52.498;13.462;2022-08-19T01:54:07;20.92;;;12.85;;
72235;SDS011;60146;52.498;13.462;2022-08-19T01:56:34;23.20;;;13.48;;
72235;SDS011;60146;52.498;13.462;2022-08-19T01:59:03;21.42;;;12.27;;
72235;SDS011;60146;52.498;13.462;2022-08-19T02:01:33;23.30;;;12.50;;
72235;SDS011;60146;52.498;13.462;2022-08-19T02:03:59;20.48;;;13.43;;
72235;SDS011;60146;52.498;13.462;2022-08-19T02:06:28;19.58;;;12.75;;
72235;SDS011;60146;52.498;13.462;2022-08-19T02:08:54;23.70;;;13.80;;
72235;SDS011;60146;52.498;13.462;2022-08-19T02:11:21;19.80;;;12.77;;
72235;SDS011;60146;52.498;13.462;2022-08-19T02:13:57;24.58;;;13.73;;
72235;SDS011;60146;52.498;13.462;2022-08-19T02:16:23;19.08;;;11.20;;
72235;SDS011;60146;52.498;13.462;2022-08-19T02:18:49;19.75;;;12.80;;
72235;SDS011;60146;52.498;13.462;2022-08-19T02:21:15;22.63;;;13.63;;
72235;SDS011;60146;52.498;13.462;2022-08-19T02:23:42;23.05;;;13.30;;
72235;SDS011;60146;52.498;13.462;2022-08-19T02:26:07;19.77;;;13.07;;
72235;SDS011;60146;52.498;13.462;2022-08-19T02:28:34;19.73;;;12.57;;
72235;SDS011;60146;52.498;13.462;2022-08-19T02:30:59;17.35;;;11.68;;
72235;SDS011;60146;52.498;13.462;2022-08-19T02:33:25;17.98;;;12.40;;
72235;SDS011;60146;52.498;13.462;2022-08-19T02:35:51;18.55;;;11.65;;
72235;SDS011;60146;52.498;13.462;2022-08-19T02:38:16;19.50;;;13.00;;
72235;SDS011;60146;52.498;13.462;2022-08-19T02:40:51;20.58;;;12.55;;
72235;SDS011;60146;52.498;13.462;2022-08-19T02:43:18;19.75;;;13.07;;
72235;SDS011;60146;52.498;13.462;2022-08-19T02:45:45;22.33;;;13.48;;
72235;SDS011;60146;52.498;13.462;2022-08-19T02:48:15;24.90;;;14.60;;
72235;SDS011;60146;52.498;13.462;2022-08-19T02:50:42;21.08;;;13.52;;
72235;SDS011;60146;52.498;13.462;2022-08-19T02:53:07;21.15;;;13.82;;
72235;SDS011;60146;52.498;13.462;2022-08-19T02:55:33;21.60;;;13.63;;
72235;SDS011;60146;52.498;13.462;2022-08-19T02:57:58;21.25;;;13.40;;
72235;SDS011;60146;52.498;13.462;2022-08-19T03:00:24;19.42;;;11.90;;
72235;SDS011;60146;52.498;13.462;2022-08-19T03:02:51;19.05;;;12.55;;
72235;SDS011;60146;52.498;13.462;2022-08-19T03:05:16;22.95;;;12.88;;
72235;SDS011;60146;52.498;13.462;2022-08-19T03:07:42;19.95;;;12.15;;
72235;SDS011;60146;52.498;13.462;2022-08-19T03:10:07;21.48;;;12.68;;
72235;SDS011;60146;52.498;13.462;2022-08-19T03:12:35;21.95;;;13.05;;
72235;SDS011;60146;52.498;13.462;2022-08-19T03:15:02;20.90;;;12.50;;
72235;SDS011;60146;52.498;13.462;2022-08-19T03:17:30;18.63;;;11.98;;
72235;SDS011;60146;52.498;13.462;2022-08-19T03:19:55;16.15;;;11.18;;
72235;SDS011;60146;52.498;13.462;2022-08-19T03:22:20;18.65;;;12.43;;
72235;SDS011;60146;52.498;13.462;2022-08-19T03:24:46;17.77;;;11.63;;
72235;SDS011;60146;52.498;13.462;2022-08-19T03:27:11;21.58;;;12.60;;
72235;SDS011;60146;52.498;13.462;2022-08-19T03:29:37;19.75;;;11.82;;
72235;SDS011;60146;52.498;13.462;2022-08-19T03:32:04;17.38;;;12.20;;
72235;SDS011;60146;52.498;13.462;2022-08-19T03:34:31;15.82;;;11.07;;
72235;SDS011;60146;52.498;13.462;2022-08-19T03:37:01;17.17;;;11.38;;
72235;SDS011;60146;52.498;13.462;2022-08-19T03:39:30;18.23;;;11.57;;
72235;SDS011;60146;52.498;13.462;2022-08-19T03:41:56;20.25;;;11.75;;
72235;SDS011;60146;52.498;13.462;2022-08-19T03:44:23;18.77;;;11.52;;
72235;SDS011;60146;52.498;13.462;2022-08-19T03:46:51;18.27;;;11.63;;
72235;SDS011;60146;52.498;13.462;2022-08-19T03:49:20;20.90;;;12.75;;
72235;SDS011;60146;52.498;13.462;2022-08-19T03:51:48;19.25;;;11.93;;
72235;SDS011;60146;52.498;13.462;2022-08-19T03:54:15;18.88;;;11.65;;
72235;SDS011;60146;52.498;13.462;2022-08-19T03:56:43;18.13;;;11.77;;
72235;SDS011;60146;52.498;13.462;2022-08-19T03:59:12;18.63;;;12.07;;
72235;SDS011;60146;52.498;13.462;2022-08-19T04:01:40;20.30;;;12.30;;
72235;SDS011;60146;52.498;13.462;2022-08-19T04:04:06;17.67;;;10.95;;
72235;SDS011;60146;52.498;13.462;2022-08-19T04:06:34;20.23;;;12.02;;
72235;SDS011;60146;52.498;13.462;2022-08-19T04:09:01;20.00;;;12.10;;
72235;SDS011;60146;52.498;13.462;2022-08-19T04:11:30;18.15;;;11.93;;
72235;SDS011;60146;52.498;13.462;2022-08-19T04:13:58;17.88;;;11.30;;
72235;SDS011;60146;52.498;13.462;2022-08-19T04:16:25;19.63;;;11.57;;
72235;SDS011;60146;52.498;13.462;2022-08-19T04:18:55;17.63;;;11.43;;
72235;SDS011;60146;52.498;13.462;2022-08-19T04:21:22;15.32;;;10.77;;
72235;SDS011;60146;52.498;13.462;2022-08-19T04:23:50;16.88;;;11.65;;
72235;SDS011;60146;52.498;13.462;2022-08-19T04:26:26;17.30;;;11.90;;
72235;SDS011;60146;52.498;13.462;2022-08-19T04:28:55;17.63;;;11.30;;
72235;SDS011;60146;52.498;13.462;2022-08-19T04:31:21;16.65;;;11.35;;
72235;SDS011;60146;52.498;13.462;2022-08-19T04:33:51;18.73;;;11.73;;
72235;SDS011;60146;52.498;13.462;2022-08-19T04:36:23;15.60;;;11.30;;
72235;SDS011;60146;52.498;13.462;2022-08-19T04:38:53;17.17;;;11.70;;
72235;SDS011;60146;52.498;13.462;2022-08-19T04:41:19;17.05;;;11.40;;
72235;SDS011;60146;52.498;13.462;2022-08-19T04:44:03;18.40;;;11.50;;
72235;SDS011;60146;52.498;13.462;2022-08-19T04:46:29;17.95;;;11.70;;
72235;SDS011;60146;52.498;13.462;2022-08-19T04:48:58;16.75;;;11.65;;
72235;SDS011;60146;52.498;13.462;2022-08-19T04:51:24;19.05;;;11.77;;
72235;SDS011;60146;52.498;13.462;2022-08-19T04:53:50;17.40;;;11.45;;
72235;SDS011;60146;52.498;13.462;2022-08-19T04:56:16;16.15;;;11.25;;
72235;SDS011;60146;52.498;13.462;2022-08-19T04:58:43;17.27;;;11.13;;
72235;SDS011;60146;52.498;13.462;2022-08-19T05:01:11;15.82;;;10.98;;
72235;SDS011;60146;52.498;13.462;2022-08-19T05:03:37;16.45;;;10.90;;
72235;SDS011;60146;52.498;13.462;2022-08-19T05:06:04;15.75;;;10.57;;
72235;SDS011;60146;52.498;13.462;2022-08-19T05:08:35;14.13;;;10.30;;
72235;SDS011;60146;52.498;13.462;2022-08-19T05:11:07;17.75;;;11.20;;
72235;SDS011;60146;52.498;13.462;2022-08-19T05:13:45;14.80;;;10.52;;
72235;SDS011;60146;52.498;13.462;2022-08-19T05:16:12;15.88;;;10.63;;
72235;SDS011;60146;52.498;13.462;2022-08-19T05:18:38;15.52;;;10.75;;
72235;SDS011;60146;52.498;13.462;2022-08-19T05:21:23;19.08;;;10.43;;
72235;SDS011;60146;52.498;13.462;2022-08-19T05:24:07;16.25;;;10.13;;
72235;SDS011;60146;52.498;13.462;2022-08-19T05:26:37;13.75;;;9.50;;
72235;SDS011;60146;52.498;13.462;2022-08-19T05:29:04;14.70;;;9.43;;
72235;SDS011;60146;52.498;13.462;2022-08-19T05:31:31;12.02;;;8.70;;
72235;SDS011;60146;52.498;13.462;2022-08-19T05:33:56;13.13;;;8.95;;
72235;SDS011;60146;52.498;13.462;2022-08-19T05:36:23;15.05;;;8.43;;
72235;SDS011;60146;52.498;13.462;2022-08-19T05:38:52;13.30;;;8.68;;
72235;SDS011;60146;52.498;13.462;2022-08-19T05:41:18;13.73;;;8.48;;
72235;SDS011;60146;52.498;13.462;2022-08-19T05:43:44;17.05;;;9.00;;
72235;SDS011;60146;52.498;13.462;2022-08-19T05:46:15;14.68;;;8.27;;
72235;SDS011;60146;52.498;13.462;2022-08-19T05:48:43;14.23;;;9.00;;
72235;SDS011;60146;52.498;13.462;2022-08-19T05:51:08;13.93;;;8.02;;
72235;SDS011;60146;52.498;13.462;2022-08-19T05:53:34;12.10;;;7.97;;
72235;SDS011;60146;52.498;13.462;2022-08-19T05:56:10;12.23;;;8.55;;
72235;SDS011;60146;52.498;13.462;2022-08-19T05:58:38;16.25;;;8.65;;
72235;SDS011;60146;52.498;13.462;2022-08-19T06:01:08;11.65;;;8.30;;
72235;SDS011;60146;52.498;13.462;2022-08-19T06:03:35;16.33;;;8.82;;
72235;SDS011;60146;52.498;13.462;2022-08-19T06:06:02;12.68;;;8.93;;
72235;SDS011;60146;52.498;13.462;2022-08-19T06:08:29;14.55;;;9.18;;
72235;SDS011;60146;52.498;13.462;2022-08-19T06:10:54;12.95;;;8.50;;
72235;SDS011;60146;52.498;13.462;2022-08-19T06:13:20;12.63;;;8.45;;
72235;SDS011;60146;52.498;13.462;2022-08-19T06:15:50;14.35;;;9.20;;
72235;SDS011;60146;52.498;13.462;2022-08-19T06:18:15;15.07;;;9.35;;
72235;SDS011;60146;52.498;13.462;2022-08-19T06:20:41;14.52;;;9.65;;
72235;SDS011;60146;52.498;13.462;2022-08-19T06:23:10;12.65;;;9.20;;
72235;SDS011;60146;52.498;13.462;2022-08-19T06:25:57;15.25;;;9.65;;
72235;SDS011;60146;52.498;13.462;2022-08-19T06:28:22;17.48;;;9.27;;
72235;SDS011;60146;52.498;13.462;2022-08-19T06:30:48;13.40;;;8.65;;
72235;SDS011;60146;52.498;13.462;2022-08-19T06:33:14;12.55;;;8.45;;
72235;SDS011;60146;52.498;13.462;2022-08-19T06:35:40;11.82;;;8.30;;
72235;SDS011;60146;52.498;13.462;2022-08-19T06:38:05;11.93;;;9.07;;
72235;SDS011;60146;52.498;13.462;2022-08-19T06:40:30;14.82;;;9.45;;
72235;SDS011;60146;52.498;13.462;2022-08-19T06:42:56;12.20;;;8.98;;
72235;SDS011;60146;52.498;13.462;2022-08-19T06:45:23;13.35;;;9.02;;
72235;SDS011;60146;52.498;13.462;2022-08-19T06:47:49;13.63;;;9.32;;
72235;SDS011;60146;52.498;13.462;2022-08-19T06:50:14;14.68;;;9.90;;
72235;SDS011;60146;52.498;13.462;2022-08-19T06:52:43;14.95;;;9.75;;
72235;SDS011;60146;52.498;13.462;2022-08-19T06:55:11;13.45;;;9.57;;
72235;SDS011;60146;52.498;13.462;2022-08-19T06:57:37;17.93;;;10.23;;
72235;SDS011;60146;52.498;13.462;2022-08-19T07:00:03;14.82;;;9.90;;
72235;SDS011;60146;52.498;13.462;2022-08-19T07:02:36;15.48;;;8.63;;
72235;SDS011;60146;52.498;13.462;2022-08-19T07:05:02;12.05;;;9.38;;
72235;SDS011;60146;52.498;13.462;2022-08-19T07:07:29;20.38;;;10.43;;
72235;SDS011;60146;52.498;13.462;2022-08-19T07:09:57;18.27;;;9.93;;
72235;SDS011;60146;52.498;13.462;2022-08-19T07:12:30;14.45;;;9.63;;
72235;SDS011;60146;52.498;13.462;2022-08-19T07:14:59;14.52;;;9.85;;
72235;SDS011;60146;52.498;13.462;2022-08-19T07:17:26;14.50;;;9.20;;
72235;SDS011;60146;52.498;13.462;2022-08-19T07:20:04;15.13;;;10.43;;
72235;SDS011;60146;52.498;13.462;2022-08-19T07:22:32;14.32;;;9.70;;
72235;SDS011;60146;52.498;13.462;2022-08-19T07:24:59;12.95;;;9.38;;
72235;SDS011;60146;52.498;13.462;2022-08-19T07:27:24;15.43;;;9.68;;
72235;SDS011;60146;52.498;13.462;2022-08-19T07:29:50;13.25;;;9.25;;
72235;SDS011;60146;52.498;13.462;2022-08-19T07:32:17;14.52;;;9.70;;
72235;SDS011;60146;52.498;13.462;2022-08-19T07:34:42;16.13;;;10.13;;
72235;SDS011;60146;52.498;13.462;2022-08-19T07:37:07;12.43;;;9.77;;
72235;SDS011;60146;52.498;13.462;2022-08-19T07:39:33;15.27;;;10.20;;
72235;SDS011;60146;52.498;13.462;2022-08-19T07:42:01;14.43;;;9.85;;
72235;SDS011;60146;52.498;13.462;2022-08-19T07:44:31;15.23;;;9.73;;
72235;SDS011;60146;52.498;13.462;2022-08-19T07:46:56;18.05;;;10.18;;
72235;SDS011;60146;52.498;13.462;2022-08-19T07:49:22;15.77;;;10.77;;
72235;SDS011;60146;52.498;13.462;2022-08-19T07:51:51;16.92;;;10.55;;
72235;SDS011;60146;52.498;13.462;2022-08-19T07:54:19;17.02;;;11.15;;
72235;SDS011;60146;52.498;13.462;2022-08-19T07:56:47;14.00;;;9.85;;
72235;SDS011;60146;52.498;13.462;2022-08-19T07:59:12;15.57;;;10.70;;
72235;SDS011;60146;52.498;13.462;2022-08-19T08:01:38;15.15;;;9.98;;
72235;SDS011;60146;52.498;13.462;2022-08-19T08:04:05;17.40;;;10.68;;
72235;SDS011;60146;52.498;13.462;2022-08-19T08:06:49;16.45;;;10.82;;
72235;SDS011;60146;52.498;13.462;2022-08-19T08:09:35;17.85;;;11.48;;
72235;SDS011;60146;52.498;13.462;2022-08-19T08:12:04;15.73;;;11.40;;
72235;SDS011;60146;52.498;13.462;2022-08-19T08:14:33;15.77;;;10.25;;
72235;SDS011;60146;52.498;13.462;2022-08-19T08:17:04;15.02;;;10.98;;
72235;SDS011;60146;52.498;13.462;2022-08-19T08:19:31;15.95;;;10.75;;
72235;SDS011;60146;52.498;13.462;2022-08-19T08:21:57;15.45;;;11.35;;
72235;SDS011;60146;52.498;13.462;2022-08-19T08:24:25;13.93;;;10.38;;
72235;SDS011;60146;52.498;13.462;2022-08-19T08:26:52;14.85;;;10.90;;
72235;SDS011;60146;52.498;13.462;2022-08-19T08:29:17;14.68;;;10.65;;
72235;SDS011;60146;52.498;13.462;2022-08-19T08:31:44;16.77;;;11.13;;
72235;SDS011;60146;52.498;13.462;2022-08-19T08:34:11;15.07;;;11.00;;
72235;SDS011;60146;52.498;13.462;2022-08-19T08:36:39;15.73;;;11.38;;
72235;SDS011;60146;52.498;13.462;2022-08-19T08:39:06;13.63;;;10.30;;
72235;SDS011;60146;52.498;13.462;2022-08-19T08:41:40;14.88;;;9.95;;
72235;SDS011;60146;52.498;13.462;2022-08-19T08:45:10;14.07;;;10.18;;
72235;SDS011;60146;52.498;13.462;2022-08-19T08:47:22;15.07;;;9.82;;
72235;SDS011;60146;52.498;13.462;2022-08-19T08:49:53;13.23;;;10.20;;
72235;SDS011;60146;52.498;13.462;2022-08-19T08:52:25;14.65;;;10.30;;
72235;SDS011;60146;52.498;13.462;2022-08-19T08:55:12;15.73;;;11.07;;
72235;SDS011;60146;52.498;13.462;2022-08-19T09:00:22;15.63;;;10.82;;
72235;SDS011;60146;52.498;13.462;2022-08-19T09:02:51;20.15;;;11.77;;
72235;SDS011;60146;52.498;13.462;2022-08-19T09:05:19;14.05;;;11.10;;
72235;SDS011;60146;52.498;13.462;2022-08-19T09:10:52;18.38;;;11.32;;
72235;SDS011;60146;52.498;13.462;2022-08-19T09:15:53;16.30;;;11.18;;
72235;SDS011;60146;52.498;13.462;2022-08-19T09:18:23;16.85;;;11.77;;
72235;SDS011;60146;52.498;13.462;2022-08-19T09:20:48;13.73;;;10.88;;
72235;SDS011;60146;52.498;13.462;2022-08-19T09:23:14;17.17;;;10.70;;
72235;SDS011;60146;52.498;13.462;2022-08-19T09:25:39;14.07;;;10.98;;
72235;SDS011;60146;52.498;13.462;2022-08-19T09:28:05;17.63;;;12.02;;
72235;SDS011;60146;52.498;13.462;2022-08-19T09:30:32;15.68;;;11.40;;
72235;SDS011;60146;52.498;13.462;2022-08-19T09:33:00;13.98;;;10.77;;
72235;SDS011;60146;52.498;13.462;2022-08-19T09:35:26;14.93;;;10.25;;
72235;SDS011;60146;52.498;13.462;2022-08-19T09:37:54;16.42;;;11.30;;
72235;SDS011;60146;52.498;13.462;2022-08-19T09:40:20;15.35;;;11.75;;
72235;SDS011;60146;52.498;13.462;2022-08-19T09:42:45;15.32;;;10.80;;
72235;SDS011;60146;52.498;13.462;2022-08-19T09:45:13;12.98;;;11.10;;
72235;SDS011;60146;52.498;13.462;2022-08-19T09:47:42;15.77;;;10.98;;
72235;SDS011;60146;52.498;13.462;2022-08-19T09:50:09;16.42;;;11.02;;
72235;SDS011;60146;52.498;13.462;2022-08-19T09:52:36;20.85;;;11.85;;
72235;SDS011;60146;52.498;13.462;2022-08-19T09:55:06;15.45;;;11.50;;
72235;SDS011;60146;52.498;13.462;2022-08-19T09:57:33;16.10;;;11.55;;
72235;SDS011;60146;52.498;13.462;2022-08-19T09:59:59;13.93;;;10.68;;
72235;SDS011;60146;52.498;13.462;2022-08-19T10:02:25;14.15;;;11.07;;
72235;SDS011;60146;52.498;13.462;2022-08-19T10:04:51;15.75;;;11.07;;
72235;SDS011;60146;52.498;13.462;2022-08-19T10:07:35;14.45;;;10.85;;
72235;SDS011;60146;52.498;13.462;2022-08-19T10:10:02;14.93;;;11.25;;
72235;SDS011;60146;52.498;13.462;2022-08-19T10:12:29;15.52;;;10.32;;
72235;SDS011;60146;52.498;13.462;2022-08-19T10:14:54;13.43;;;10.50;;
72235;SDS011;60146;52.498;13.462;2022-08-19T10:17:21;15.00;;;11.10;;
72235;SDS011;60146;52.498;13.462;2022-08-19T10:19:46;14.00;;;9.98;;
72235;SDS011;60146;52.498;13.462;2022-08-19T10:22:12;13.25;;;10.65;;
72235;SDS011;60146;52.498;13.462;2022-08-19T10:24:39;14.95;;;11.07;;
72235;SDS011;60146;52.498;13.462;2022-08-19T10:27:04;14.93;;;10.18;;
72235;SDS011;60146;52.498;13.462;2022-08-19T10:29:31;14.60;;;10.40;;
72235;SDS011;60146;52.498;13.462;2022-08-19T10:31:57;14.82;;;10.23;;
72235;SDS011;60146;52.498;13.462;2022-08-19T10:34:24;15.98;;;11.20;;
72235;SDS011;60146;52.498;13.462;2022-08-19T10:36:50;14.00;;;10.35;;
72235;SDS011;60146;52.498;13.462;2022-08-19T10:39:16;14.43;;;9.23;;
72235;SDS011;60146;52.498;13.462;2022-08-19T10:41:41;12.40;;;9.65;;
72235;SDS011;60146;52.498;13.462;2022-08-19T10:44:09;15.88;;;10.50;;
72235;SDS011;60146;52.498;13.462;2022-08-19T10:46:37;12.43;;;9.63;;
72235;SDS011;60146;52.498;13.462;2022-08-19T10:49:06;14.02;;;10.18;;
72235;SDS011;60146;52.498;13.462;2022-08-19T10:51:33;14.88;;;10.35;;
72235;SDS011;60146;52.498;13.462;2022-08-19T10:54:17;17.50;;;10.77;;
72235;SDS011;60146;52.498;13.462;2022-08-19T10:56:43;12.75;;;10.05;;
72235;SDS011;60146;52.498;13.462;2022-08-19T10:59:25;14.98;;;10.23;;
72235;SDS011;60146;52.498;13.462;2022-08-19T11:01:54;14.25;;;10.00;;
72235;SDS011;60146;52.498;13.462;2022-08-19T11:04:23;15.13;;;10.15;;
72235;SDS011;60146;52.498;13.462;2022-08-19T11:06:49;14.73;;;10.38;;
72235;SDS011;60146;52.498;13.462;2022-08-19T11:09:15;14.18;;;10.20;;
72235;SDS011;60146;52.498;13.462;2022-08-19T11:11:49;14.55;;;9.55;;
72235;SDS011;60146;52.498;13.462;2022-08-19T11:14:16;13.27;;;10.45;;
72235;SDS011;60146;52.498;13.462;2022-08-19T11:19:10;14.82;;;10.63;;
72235;SDS011;60146;52.498;13.462;2022-08-19T11:21:38;13.93;;;10.50;;
72235;SDS011;60146;52.498;13.462;2022-08-19T11:24:06;13.38;;;10.18;;
72235;SDS011;60146;52.498;13.462;2022-08-19T11:26:40;15.27;;;9.70;;
72235;SDS011;60146;52.498;13.462;2022-08-19T11:29:07;13.02;;;9.32;;
72235;SDS011;60146;52.498;13.462;2022-08-19T11:31:38;14.05;;;10.10;;
72235;SDS011;60146;52.498;13.462;2022-08-19T11:34:06;14.93;;;11.13;;
72235;SDS011;60146;52.498;13.462;2022-08-19T11:36:33;14.85;;;10.52;;
72235;SDS011;60146;52.498;13.462;2022-08-19T11:39:03;13.52;;;9.88;;
72235;SDS011;60146;52.498;13.462;2022-08-19T11:41:30;15.10;;;9.55;;
72235;SDS011;60146;52.498;13.462;2022-08-19T11:43:55;13.77;;;9.88;;
72235;SDS011;60146;52.498;13.462;2022-08-19T11:46:21;12.60;;;8.93;;
72235;SDS011;60146;52.498;13.462;2022-08-19T11:48:49;16.75;;;9.40;;
72235;SDS011;60146;52.498;13.462;2022-08-19T11:51:17;14.02;;;9.57;;
72235;SDS011;60146;52.498;13.462;2022-08-19T11:53:46;12.45;;;8.48;;
72235;SDS011;60146;52.498;13.462;2022-08-19T11:56:12;12.75;;;9.35;;
72235;SDS011;60146;52.498;13.462;2022-08-19T11:58:38;13.00;;;9.65;;
72235;SDS011;60146;52.498;13.462;2022-08-19T12:01:07;14.60;;;9.18;;
72235;SDS011;60146;52.498;13.462;2022-08-19T12:03:36;11.00;;;8.27;;
72235;SDS011;60146;52.498;13.462;2022-08-19T12:06:03;13.52;;;8.32;;
72235;SDS011;60146;52.498;13.462;2022-08-19T12:08:30;10.80;;;8.05;;
72235;SDS011;60146;52.498;13.462;2022-08-19T12:10:55;10.30;;;7.93;;
72235;SDS011;60146;52.498;13.462;2022-08-19T12:13:21;11.15;;;8.50;;
72235;SDS011;60146;52.498;13.462;2022-08-19T12:15:47;13.23;;;7.82;;
72235;SDS011;60146;52.498;13.462;2022-08-19T12:18:13;9.90;;;7.55;;
72235;SDS011;60146;52.498;13.462;2022-08-19T12:20:39;10.15;;;7.47;;
72235;SDS011;60146;52.498;13.462;2022-08-19T12:23:06;9.90;;;7.80;;
72235;SDS011;60146;52.498;13.462;2022-08-19T12:25:34;10.05;;;8.00;;
72235;SDS011;60146;52.498;13.462;2022-08-19T12:27:59;9.15;;;7.00;;
72235;SDS011;60146;52.498;13.462;2022-08-19T12:30:25;11.80;;;7.70;;
72235;SDS011;60146;52.498;13.462;2022-08-19T12:32:50;9.80;;;7.35;;
72235;SDS011;60146;52.498;13.462;2022-08-19T12:35:16;9.77;;;7.03;;
72235;SDS011;60146;52.498;13.462;2022-08-19T12:37:46;9.60;;;6.70;;
72235;SDS011;60146;52.498;13.462;2022-08-19T12:40:12;8.85;;;6.80;;
72235;SDS011;60146;52.498;13.462;2022-08-19T12:42:39;11.50;;;7.57;;
72235;SDS011;60146;52.498;13.462;2022-08-19T12:45:07;11.60;;;7.00;;
72235;SDS011;60146;52.498;13.462;2022-08-19T12:47:33;9.07;;;6.57;;
72235;SDS011;60146;52.498;13.462;2022-08-19T12:49:59;7.53;;;6.63;;
72235;SDS011;60146;52.498;13.462;2022-08-19T12:52:25;9.30;;;6.78;;
72235;SDS011;60146;52.498;13.462;2022-08-19T12:54:52;17.30;;;8.75;;
72235;SDS011;60146;52.498;13.462;2022-08-19T12:57:19;11.57;;;6.68;;
72235;SDS011;60146;52.498;13.462;2022-08-19T12:59:44;10.57;;;7.55;;
72235;SDS011;60146;52.498;13.462;2022-08-19T13:02:09;11.43;;;7.00;;
72235;SDS011;60146;52.498;13.462;2022-08-19T13:04:35;9.65;;;6.82;;
72235;SDS011;60146;52.498;13.462;2022-08-19T13:07:02;9.27;;;6.18;;
72235;SDS011;60146;52.498;13.462;2022-08-19T13:09:28;8.13;;;5.90;;
72235;SDS011;60146;52.498;13.462;2022-08-19T13:11:53;8.07;;;6.85;;
72235;SDS011;60146;52.498;13.462;2022-08-19T13:14:19;8.80;;;7.10;;
72235;SDS011;60146;52.498;13.462;2022-08-19T13:16:44;9.77;;;7.45;;
72235;SDS011;60146;52.498;13.462;2022-08-19T13:19:10;10.82;;;7.57;;
72235;SDS011;60146;52.498;13.462;2022-08-19T13:21:36;9.73;;;7.00;;
72235;SDS011;60146;52.498;13.462;2022-08-19T13:24:02;9.00;;;7.70;;
72235;SDS011;60146;52.498;13.462;2022-08-19T13:26:31;9.50;;;7.20;;
72235;SDS011;60146;52.498;13.462;2022-08-19T13:29:02;8.50;;;6.95;;
72235;SDS011;60146;52.498;13.462;2022-08-19T13:31:46;11.32;;;7.47;;
72235;SDS011;60146;52.498;13.462;2022-08-19T13:34:31;12.73;;;8.02;;
72235;SDS011;60146;52.498;13.462;2022-08-19T13:36:58;10.85;;;7.68;;
72235;SDS011;60146;52.498;13.462;2022-08-19T13:39:27;10.45;;;7.70;;
72235;SDS011;60146;52.498;13.462;2022-08-19T13:41:53;10.15;;;8.23;;
72235;SDS011;60146;52.498;13.462;2022-08-19T13:44:19;10.75;;;7.70;;
72235;SDS011;60146;52.498;13.462;2022-08-19T13:46:45;9.32;;;7.35;;
72235;SDS011;60146;52.498;13.462;2022-08-19T13:49:12;10.38;;;8.20;;
72235;SDS011;60146;52.498;13.462;2022-08-19T13:51:40;9.95;;;7.78;;
72235;SDS011;60146;52.498;13.462;2022-08-19T13:54:07;10.77;;;7.60;;
72235;SDS011;60146;52.498;13.462;2022-08-19T13:56:33;10.68;;;8.05;;
72235;SDS011;60146;52.498;13.462;2022-08-19T13:58:59;13.35;;;7.63;;
72235;SDS011;60146;52.498;13.462;2022-08-19T14:01:24;10.40;;;7.72;;
72235;SDS011;60146;52.498;13.462;2022-08-19T14:03:51;11.18;;;8.07;;
72235;SDS011;60146;52.498;13.462;2022-08-19T14:06:17;12.45;;;8.20;;
72235;SDS011;60146;52.498;13.462;2022-08-19T14:08:43;10.57;;;8.20;;
72235;SDS011;60146;52.498;13.462;2022-08-19T14:11:09;11.98;;;8.30;;
72235;SDS011;60146;52.498;13.462;2022-08-19T14:13:34;12.82;;;8.07;;
72235;SDS011;60146;52.498;13.462;2022-08-19T14:16:00;11.65;;;8.52;;
72235;SDS011;60146;52.498;13.462;2022-08-19T14:18:25;14.55;;;8.60;;
72235;SDS011;60146;52.498;13.462;2022-08-19T14:20:51;10.48;;;8.60;;
72235;SDS011;60146;52.498;13.462;2022-08-19T14:23:16;11.95;;;8.30;;
72235;SDS011;60146;52.498;13.462;2022-08-19T14:25:42;9.55;;;7.93;;
72235;SDS011;60146;52.498;13.462;2022-08-19T14:28:08;10.10;;;7.90;;
72235;SDS011;60146;52.498;13.462;2022-08-19T14:30:34;12.48;;;8.57;;
72235;SDS011;60146;52.498;13.462;2022-08-19T14:33:02;12.20;;;8.65;;